sensor_id;sensor_type;location;lat;lon;timestamp;pressure;altitude;pressure_sealevel;temperature;humidity
48872;BME280;36154;51.674;7.824;2023-04-25T00:00:58;100068.09;;;20.86;47.84
48872;BME280;36154;51.674;7.824;2023-04-25T00:03:23;100074.13;;;20.87;47.81
48872;BME280;36154;51.674;7.824;2023-04-25T00:05:50;100073.31;;;20.85;47.75
48872;BME280;36154;51.674;7.824;2023-04-25T00:08:16;100071.59;;;20.85;47.71
48872;BME280;36154;51.674;7.824;2023-04-25T00:10:42;100076.72;;;20.87;47.65
48872;BME280;36154;51.674;7.824;2023-04-25T00:13:07;100082.78;;;20.86;47.83
48872;BME280;36154;51.674;7.824;2023-04-25T00:15:33;100075.00;;;20.86;47.71
48872;BME280;36154;51.674;7.824;2023-04-25T00:17:59;100082.78;;;20.86;47.64
48872;BME280;36154;51.674;7.824;2023-04-25T00:20:25;100078.50;;;20.85;47.67
48872;BME280;36154;51.674;7.824;2023-04-25T00:22:53;100085.38;;;20.86;47.76
48872;BME280;36154;51.674;7.824;2023-04-25T00:25:18;100073.31;;;20.85;47.75
48872;BME280;36154;51.674;7.824;2023-04-25T00:27:44;100075.91;;;20.85;47.80
48872;BME280;36154;51.674;7.824;2023-04-25T00:30:10;100079.34;;;20.85;47.75
48872;BME280;36154;51.674;7.824;2023-04-25T00:32:35;100084.59;;;20.84;47.64
48872;BME280;36154;51.674;7.824;2023-04-25T00:35:01;100081.19;;;20.82;47.70
48872;BME280;36154;51.674;7.824;2023-04-25T00:37:27;100079.47;;;20.82;47.42
48872;BME280;36154;51.674;7.824;2023-04-25T00:39:52;100079.47;;;20.82;47.54
48872;BME280;36154;51.674;7.824;2023-04-25T00:42:20;100086.31;;;20.83;47.64
48872;BME280;36154;51.674;7.824;2023-04-25T00:44:46;100074.28;;;20.82;47.72
48872;BME280;36154;51.674;7.824;2023-04-25T00:47:11;100088.06;;;20.83;47.69
48872;BME280;36154;51.674;7.824;2023-04-25T00:49:37;100082.06;;;20.82;47.59
48872;BME280;36154;51.674;7.824;2023-04-25T00:52:02;100077.78;;;20.81;47.67
48872;BME280;36154;51.674;7.824;2023-04-25T00:54:28;100074.28;;;20.82;47.50
48872;BME280;36154;51.674;7.824;2023-04-25T00:56:53;100076.88;;;20.82;47.54
48872;BME280;36154;51.674;7.824;2023-04-25T00:59:19;100070.84;;;20.82;47.64
48872;BME280;36154;51.674;7.824;2023-04-25T01:01:45;100069.13;;;20.82;47.55
48872;BME280;36154;51.674;7.824;2023-04-25T01:04:11;100073.44;;;20.82;47.66
48872;BME280;36154;51.674;7.824;2023-04-25T01:06:36;100076.94;;;20.81;47.54
48872;BME280;36154;51.674;7.824;2023-04-25T01:09:01;100076.94;;;20.81;47.60
48872;BME280;36154;51.674;7.824;2023-04-25T01:11:27;100081.19;;;20.82;47.78
48872;BME280;36154;51.674;7.824;2023-04-25T01:13:53;100080.41;;;20.80;47.64
48872;BME280;36154;51.674;7.824;2023-04-25T01:16:18;100087.28;;;20.81;47.66
48872;BME280;36154;51.674;7.824;2023-04-25T01:18:44;100090.78;;;20.80;47.46
48872;BME280;36154;51.674;7.824;2023-04-25T01:21:11;100082.13;;;20.81;47.54
48872;BME280;36154;51.674;7.824;2023-04-25T01:23:39;100080.41;;;20.80;47.59
48872;BME280;36154;51.674;7.824;2023-04-25T01:26:06;100085.59;;;20.80;47.66
48872;BME280;36154;51.674;7.824;2023-04-25T01:28:33;100082.22;;;20.78;47.66
48872;BME280;36154;51.674;7.824;2023-04-25T01:30:59;100083.06;;;20.78;47.69
48872;BME280;36154;51.674;7.824;2023-04-25T01:33:25;100084.75;;;20.79;47.45
48872;BME280;36154;51.674;7.824;2023-04-25T01:35:51;100079.75;;;20.75;47.69
48872;BME280;36154;51.674;7.824;2023-04-25T01:38:16;100099.47;;;20.79;47.74
48872;BME280;36154;51.674;7.824;2023-04-25T01:40:44;100086.53;;;20.79;47.44
48872;BME280;36154;51.674;7.824;2023-04-25T01:43:10;100099.47;;;20.79;47.60
48872;BME280;36154;51.674;7.824;2023-04-25T01:45:37;100089.09;;;20.79;47.57
48872;BME280;36154;51.674;7.824;2023-04-25T01:48:07;100099.47;;;20.79;47.76
48872;BME280;36154;51.674;7.824;2023-04-25T01:50:32;100100.34;;;20.78;47.57
48872;BME280;36154;51.674;7.824;2023-04-25T01:52:58;100097.75;;;20.78;47.49
48872;BME280;36154;51.674;7.824;2023-04-25T01:55:23;100100.34;;;20.78;47.59
48872;BME280;36154;51.674;7.824;2023-04-25T01:57:48;100102.09;;;20.77;47.65
48872;BME280;36154;51.674;7.824;2023-04-25T02:00:14;100111.59;;;20.77;47.68
48872;BME280;36154;51.674;7.824;2023-04-25T02:02:39;100113.28;;;20.78;47.53
48872;BME280;36154;51.674;7.824;2023-04-25T02:05:05;100111.59;;;20.77;47.53
48872;BME280;36154;51.674;7.824;2023-04-25T02:07:31;100113.34;;;20.76;47.58
48872;BME280;36154;51.674;7.824;2023-04-25T02:09:57;100113.34;;;20.76;47.47
48872;BME280;36154;51.674;7.824;2023-04-25T02:12:22;100106.44;;;20.77;47.51
48872;BME280;36154;51.674;7.824;2023-04-25T02:14:47;100116.78;;;20.77;47.46
48872;BME280;36154;51.674;7.824;2023-04-25T02:17:12;100118.59;;;20.75;47.55
48872;BME280;36154;51.674;7.824;2023-04-25T02:19:38;100113.41;;;20.75;47.55
48872;BME280;36154;51.674;7.824;2023-04-25T02:22:03;100118.59;;;20.75;47.45
48872;BME280;36154;51.674;7.824;2023-04-25T02:24:31;100124.63;;;20.75;47.55
48872;BME280;36154;51.674;7.824;2023-04-25T02:26:58;100115.13;;;20.76;47.45
48872;BME280;36154;51.674;7.824;2023-04-25T02:29:24;100118.59;;;20.75;47.46
48872;BME280;36154;51.674;7.824;2023-04-25T02:31:49;100118.59;;;20.75;47.52
48872;BME280;36154;51.674;7.824;2023-04-25T02:34:14;100128.94;;;20.75;47.46
48872;BME280;36154;51.674;7.824;2023-04-25T02:36:40;100123.75;;;20.75;47.46
48872;BME280;36154;51.674;7.824;2023-04-25T02:39:06;100123.75;;;20.75;47.55
48872;BME280;36154;51.674;7.824;2023-04-25T02:41:31;100122.09;;;20.74;47.57
48872;BME280;36154;51.674;7.824;2023-04-25T02:43:56;100122.09;;;20.74;47.55
48872;BME280;36154;51.674;7.824;2023-04-25T02:46:22;100124.69;;;20.74;47.52
48872;BME280;36154;51.674;7.824;2023-04-25T02:48:47;100126.34;;;20.75;47.53
48872;BME280;36154;51.674;7.824;2023-04-25T02:51:13;100130.75;;;20.73;47.24
48872;BME280;36154;51.674;7.824;2023-04-25T02:53:38;100130.75;;;20.73;47.17
48872;BME280;36154;51.674;7.824;2023-04-25T02:56:04;100128.16;;;20.73;47.46
48872;BME280;36154;51.674;7.824;2023-04-25T02:58:30;100135.94;;;20.73;47.58
48872;BME280;36154;51.674;7.824;2023-04-25T03:00:55;100133.34;;;20.73;47.49
48872;BME280;36154;51.674;7.824;2023-04-25T03:03:20;100140.28;;;20.72;47.48
48872;BME280;36154;51.674;7.824;2023-04-25T03:05:49;100131.78;;;20.68;47.50
48872;BME280;36154;51.674;7.824;2023-04-25T03:08:16;100136.81;;;20.72;47.34
48872;BME280;36154;51.674;7.824;2023-04-25T03:10:41;100139.41;;;20.72;47.42
48872;BME280;36154;51.674;7.824;2023-04-25T03:13:06;100146.28;;;20.73;47.41
48872;BME280;36154;51.674;7.824;2023-04-25T03:15:31;100144.59;;;20.72;47.40
48872;BME280;36154;51.674;7.824;2023-04-25T03:17:57;100144.59;;;20.72;47.45
48872;BME280;36154;51.674;7.824;2023-04-25T03:20:22;100142.91;;;20.71;47.48
48872;BME280;36154;51.674;7.824;2023-04-25T03:22:47;100152.41;;;20.70;47.50
48872;BME280;36154;51.674;7.824;2023-04-25T03:25:13;100153.28;;;20.71;47.47
48872;BME280;36154;51.674;7.824;2023-04-25T03:27:38;100161.94;;;20.70;47.35
48872;BME280;36154;51.674;7.824;2023-04-25T03:30:04;100164.50;;;20.70;47.43
48872;BME280;36154;51.674;7.824;2023-04-25T03:32:29;100165.34;;;20.70;47.18
48872;BME280;36154;51.674;7.824;2023-04-25T03:34:55;100167.09;;;20.70;47.38
48872;BME280;36154;51.674;7.824;2023-04-25T03:37:20;100161.94;;;20.70;47.34
48872;BME280;36154;51.674;7.824;2023-04-25T03:39:45;100159.41;;;20.68;47.39
48872;BME280;36154;51.674;7.824;2023-04-25T03:42:11;100156.75;;;20.70;47.45
48872;BME280;36154;51.674;7.824;2023-04-25T03:44:36;100161.94;;;20.70;47.25
48872;BME280;36154;51.674;7.824;2023-04-25T03:47:01;100165.44;;;20.68;47.29
48872;BME280;36154;51.674;7.824;2023-04-25T03:49:26;100162.03;;;20.66;47.46
48872;BME280;36154;51.674;7.824;2023-04-25T03:51:52;100174.09;;;20.67;47.33
48872;BME280;36154;51.674;7.824;2023-04-25T03:54:17;100168.03;;;20.68;47.30
48872;BME280;36154;51.674;7.824;2023-04-25T03:56:42;100168.06;;;20.67;47.46
48872;BME280;36154;51.674;7.824;2023-04-25T03:59:08;100174.97;;;20.66;47.24
48872;BME280;36154;51.674;7.824;2023-04-25T04:01:33;100184.44;;;20.67;47.33
48872;BME280;36154;51.674;7.824;2023-04-25T04:03:58;100180.16;;;20.66;47.38
48872;BME280;36154;51.674;7.824;2023-04-25T04:06:24;100185.28;;;20.68;47.33
48872;BME280;36154;51.674;7.824;2023-04-25T04:08:49;100184.44;;;20.67;47.35
48872;BME280;36154;51.674;7.824;2023-04-25T04:11:14;100187.09;;;20.66;47.27
48872;BME280;36154;51.674;7.824;2023-04-25T04:13:39;100187.97;;;20.65;47.39
48872;BME280;36154;51.674;7.824;2023-04-25T04:16:05;100193.09;;;20.66;47.73
48872;BME280;36154;51.674;7.824;2023-04-25T04:18:30;100193.09;;;20.66;47.37
48872;BME280;36154;51.674;7.824;2023-04-25T04:20:56;100199.13;;;20.67;47.23
48872;BME280;36154;51.674;7.824;2023-04-25T04:23:23;100193.09;;;20.66;47.37
48872;BME280;36154;51.674;7.824;2023-04-25T04:25:48;100204.31;;;20.67;47.45
48872;BME280;36154;51.674;7.824;2023-04-25T04:28:13;100202.56;;;20.67;47.29
48872;BME280;36154;51.674;7.824;2023-04-25T04:30:39;100198.28;;;20.66;47.29
48872;BME280;36154;51.674;7.824;2023-04-25T04:33:06;100194.78;;;20.67;47.29
48872;BME280;36154;51.674;7.824;2023-04-25T04:35:32;100200.88;;;20.66;47.35
48872;BME280;36154;51.674;7.824;2023-04-25T04:37:57;100198.38;;;20.63;47.33
48872;BME280;36154;51.674;7.824;2023-04-25T04:40:22;100203.44;;;20.66;47.31
48872;BME280;36154;51.674;7.824;2023-04-25T04:42:48;100200.91;;;20.65;47.50
48872;BME280;36154;51.674;7.824;2023-04-25T04:45:14;100213.81;;;20.66;47.30
48872;BME280;36154;51.674;7.824;2023-04-25T04:47:40;100209.53;;;20.65;47.36
48872;BME280;36154;51.674;7.824;2023-04-25T04:50:07;100216.41;;;20.66;47.28
48872;BME280;36154;51.674;7.824;2023-04-25T04:52:37;100216.41;;;20.66;47.43
48872;BME280;36154;51.674;7.824;2023-04-25T04:55:04;100220.78;;;20.64;47.32
48872;BME280;36154;51.674;7.824;2023-04-25T04:57:30;100221.69;;;20.63;47.49
48872;BME280;36154;51.674;7.824;2023-04-25T04:59:56;100229.44;;;20.63;47.42
48872;BME280;36154;51.674;7.824;2023-04-25T05:02:21;100231.91;;;20.66;47.47
48872;BME280;36154;51.674;7.824;2023-04-25T05:04:46;100231.13;;;20.64;47.32
48872;BME280;36154;51.674;7.824;2023-04-25T05:07:12;100238.13;;;20.62;47.43
48872;BME280;36154;51.674;7.824;2023-04-25T05:09:37;100244.97;;;20.63;47.42
48872;BME280;36154;51.674;7.824;2023-04-25T05:12:03;100243.19;;;20.65;47.42
48872;BME280;36154;51.674;7.824;2023-04-25T05:14:28;100245.84;;;20.64;47.55
48872;BME280;36154;51.674;7.824;2023-04-25T05:16:54;100251.00;;;20.64;47.39
48872;BME280;36154;51.674;7.824;2023-04-25T05:19:19;100263.09;;;20.63;47.72
48872;BME280;36154;51.674;7.824;2023-04-25T05:21:44;100260.50;;;20.63;47.44
48872;BME280;36154;51.674;7.824;2023-04-25T05:24:10;100266.59;;;20.62;47.64
48872;BME280;36154;51.674;7.824;2023-04-25T05:26:35;100275.16;;;20.64;47.33
48872;BME280;36154;51.674;7.824;2023-04-25T05:29:00;100270.84;;;20.63;47.27
48872;BME280;36154;51.674;7.824;2023-04-25T05:31:26;100269.19;;;20.62;47.30
48872;BME280;36154;51.674;7.824;2023-04-25T05:33:51;100269.19;;;20.62;47.40
48872;BME280;36154;51.674;7.824;2023-04-25T05:36:18;100277.72;;;20.64;47.37
48872;BME280;36154;51.674;7.824;2023-04-25T05:38:43;100277.00;;;20.61;47.48
48872;BME280;36154;51.674;7.824;2023-04-25T05:41:09;100282.13;;;20.62;47.28
48872;BME280;36154;51.674;7.824;2023-04-25T05:43:34;100269.19;;;20.62;47.37
48872;BME280;36154;51.674;7.824;2023-04-25T05:46:00;100281.22;;;20.63;47.22
48872;BME280;36154;51.674;7.824;2023-04-25T05:48:25;100283.78;;;20.63;47.59
48872;BME280;36154;51.674;7.824;2023-04-25T05:50:50;100285.56;;;20.63;47.30
48872;BME280;36154;51.674;7.824;2023-04-25T05:53:17;100286.38;;;20.63;47.16
48872;BME280;36154;51.674;7.824;2023-04-25T05:55:42;100294.16;;;20.63;47.23
48872;BME280;36154;51.674;7.824;2023-04-25T05:58:07;100296.75;;;20.63;47.32
48872;BME280;36154;51.674;7.824;2023-04-25T06:00:33;100295.91;;;20.63;47.35
48872;BME280;36154;51.674;7.824;2023-04-25T06:02:58;100299.31;;;20.63;46.97
48872;BME280;36154;51.674;7.824;2023-04-25T06:05:24;100295.94;;;20.61;47.28
48872;BME280;36154;51.674;7.824;2023-04-25T06:07:50;100310.59;;;20.62;47.16
48872;BME280;36154;51.674;7.824;2023-04-25T06:10:15;100309.75;;;20.62;47.10
48872;BME280;36154;51.674;7.824;2023-04-25T06:12:40;100312.28;;;20.63;47.14
48872;BME280;36154;51.674;7.824;2023-04-25T06:15:06;100314.84;;;20.63;47.16
48872;BME280;36154;51.674;7.824;2023-04-25T06:17:32;100308.00;;;20.62;47.05
48872;BME280;36154;51.674;7.824;2023-04-25T06:19:58;100312.28;;;20.63;47.04
48872;BME280;36154;51.674;7.824;2023-04-25T06:22:23;100310.59;;;20.62;46.96
48872;BME280;36154;51.674;7.824;2023-04-25T06:24:48;100321.75;;;20.64;47.13
48872;BME280;36154;51.674;7.824;2023-04-25T06:27:13;100322.63;;;20.63;47.11
48872;BME280;36154;51.674;7.824;2023-04-25T06:29:39;100335.56;;;20.63;47.07
48872;BME280;36154;51.674;7.824;2023-04-25T06:32:04;100331.31;;;20.62;47.17
48872;BME280;36154;51.674;7.824;2023-04-25T06:34:30;100327.81;;;20.63;47.11
48872;BME280;36154;51.674;7.824;2023-04-25T06:36:55;100337.31;;;20.63;47.11
48872;BME280;36154;51.674;7.824;2023-04-25T06:39:20;100338.16;;;20.63;47.04
48872;BME280;36154;51.674;7.824;2023-04-25T06:41:48;100326.97;;;20.63;47.02
48872;BME280;36154;51.674;7.824;2023-04-25T06:44:13;100333.91;;;20.62;47.15
48872;BME280;36154;51.674;7.824;2023-04-25T06:46:39;100336.47;;;20.62;47.00
48872;BME280;36154;51.674;7.824;2023-04-25T06:49:04;100340.75;;;20.63;47.01
48872;BME280;36154;51.674;7.824;2023-04-25T06:51:29;100332.19;;;20.61;46.94
48872;BME280;36154;51.674;7.824;2023-04-25T06:53:55;100341.59;;;20.64;47.06
48872;BME280;36154;51.674;7.824;2023-04-25T06:56:21;100346.84;;;20.62;47.07
48872;BME280;36154;51.674;7.824;2023-04-25T06:58:46;100342.50;;;20.63;47.00
48872;BME280;36154;51.674;7.824;2023-04-25T07:01:12;100351.03;;;20.65;47.16
48872;BME280;36154;51.674;7.824;2023-04-25T07:03:37;100350.22;;;20.64;47.04
48872;BME280;36154;51.674;7.824;2023-04-25T07:06:03;100359.69;;;20.65;47.08
48872;BME280;36154;51.674;7.824;2023-04-25T07:08:29;100354.50;;;20.65;47.15
48872;BME280;36154;51.674;7.824;2023-04-25T07:10:54;100363.16;;;20.64;46.94
48872;BME280;36154;51.674;7.824;2023-04-25T07:13:20;100352.75;;;20.66;47.31
48872;BME280;36154;51.674;7.824;2023-04-25T07:15:45;100353.59;;;20.66;47.16
48872;BME280;36154;51.674;7.824;2023-04-25T07:18:10;100353.59;;;20.66;47.20
48872;BME280;36154;51.674;7.824;2023-04-25T07:20:36;100353.59;;;20.66;47.16
48872;BME280;36154;51.674;7.824;2023-04-25T07:23:01;100364.81;;;20.67;47.22
48872;BME280;36154;51.674;7.824;2023-04-25T07:25:26;100368.22;;;20.67;47.27
48872;BME280;36154;51.674;7.824;2023-04-25T07:27:52;100365.66;;;20.67;47.30
48872;BME280;36154;51.674;7.824;2023-04-25T07:30:17;100372.53;;;20.68;47.12
48872;BME280;36154;51.674;7.824;2023-04-25T07:32:43;100372.53;;;20.68;46.85
48872;BME280;36154;51.674;7.824;2023-04-25T07:35:08;100373.38;;;20.69;47.14
48872;BME280;36154;51.674;7.824;2023-04-25T07:37:34;100369.94;;;20.68;47.07
48872;BME280;36154;51.674;7.824;2023-04-25T07:40:01;100376.78;;;20.70;47.06
48872;BME280;36154;51.674;7.824;2023-04-25T07:42:26;100378.53;;;20.69;47.13
48872;BME280;36154;51.674;7.824;2023-04-25T07:44:51;100376.78;;;20.70;47.02
48872;BME280;36154;51.674;7.824;2023-04-25T07:47:17;100377.69;;;20.68;47.07
48872;BME280;36154;51.674;7.824;2023-04-25T07:49:44;100387.13;;;20.70;46.92
48872;BME280;36154;51.674;7.824;2023-04-25T07:52:12;100391.44;;;20.71;47.04
48872;BME280;36154;51.674;7.824;2023-04-25T07:54:38;100392.28;;;20.71;47.01
48872;BME280;36154;51.674;7.824;2023-04-25T07:57:03;100397.44;;;20.71;47.06
48872;BME280;36154;51.674;7.824;2023-04-25T07:59:28;100402.63;;;20.71;46.99
48872;BME280;36154;51.674;7.824;2023-04-25T08:01:54;100403.47;;;20.72;47.01
48872;BME280;36154;51.674;7.824;2023-04-25T08:04:19;100403.47;;;20.72;47.04
48872;BME280;36154;51.674;7.824;2023-04-25T08:06:45;100405.16;;;20.73;46.81
48872;BME280;36154;51.674;7.824;2023-04-25T08:09:10;100406.91;;;20.72;46.55
48872;BME280;36154;51.674;7.824;2023-04-25T08:11:36;100406.88;;;20.74;46.82
48872;BME280;36154;51.674;7.824;2023-04-25T08:14:01;100411.19;;;20.73;46.96
48872;BME280;36154;51.674;7.824;2023-04-25T08:16:27;100412.03;;;20.74;46.92
48872;BME280;36154;51.674;7.824;2023-04-25T08:18:55;100419.81;;;20.74;46.75
48872;BME280;36154;51.674;7.824;2023-04-25T08:21:21;100417.22;;;20.74;46.84
48872;BME280;36154;51.674;7.824;2023-04-25T08:23:46;100422.34;;;20.75;46.62
48872;BME280;36154;51.674;7.824;2023-04-25T08:26:11;100433.56;;;20.76;46.79
48872;BME280;36154;51.674;7.824;2023-04-25T08:28:37;100430.16;;;20.74;46.71
48872;BME280;36154;51.674;7.824;2023-04-25T08:31:02;100431.84;;;20.75;46.83
48872;BME280;36154;51.674;7.824;2023-04-25T08:33:28;100437.03;;;20.75;46.83
48872;BME280;36154;51.674;7.824;2023-04-25T08:35:53;100438.78;;;20.74;46.63
48872;BME280;36154;51.674;7.824;2023-04-25T08:38:18;100443.91;;;20.76;47.00
48872;BME280;36154;51.674;7.824;2023-04-25T08:40:49;100443.91;;;20.76;46.47
48872;BME280;36154;51.674;7.824;2023-04-25T08:43:18;100444.78;;;20.75;46.61
48872;BME280;36154;51.674;7.824;2023-04-25T08:45:44;100457.69;;;20.76;46.47
48872;BME280;36154;51.674;7.824;2023-04-25T08:48:14;100451.66;;;20.76;46.71
48872;BME280;36154;51.674;7.824;2023-04-25T08:50:50;100457.69;;;20.76;46.78
48872;BME280;36154;51.674;7.824;2023-04-25T08:53:16;100455.16;;;20.75;46.64
48872;BME280;36154;51.674;7.824;2023-04-25T08:55:46;100466.28;;;20.77;46.78
48872;BME280;36154;51.674;7.824;2023-04-25T08:58:12;100468.88;;;20.77;46.60
48872;BME280;36154;51.674;7.824;2023-04-25T09:00:38;100469.78;;;20.76;46.70
48872;BME280;36154;51.674;7.824;2023-04-25T09:03:03;100481.78;;;20.78;46.67
48872;BME280;36154;51.674;7.824;2023-04-25T09:05:29;100480.06;;;20.79;46.57
48872;BME280;36154;51.674;7.824;2023-04-25T09:07:55;100481.78;;;20.78;46.51
48872;BME280;36154;51.674;7.824;2023-04-25T09:10:21;100486.13;;;20.78;46.54
48872;BME280;36154;51.674;7.824;2023-04-25T09:13:04;100480.94;;;20.78;46.42
48872;BME280;36154;51.674;7.824;2023-04-25T09:15:47;100486.13;;;20.78;46.40
48872;BME280;36154;51.674;7.824;2023-04-25T09:18:12;100500.81;;;20.77;46.38
48872;BME280;36154;51.674;7.824;2023-04-25T09:20:42;100499.94;;;20.77;46.42
48872;BME280;36154;51.674;7.824;2023-04-25T09:23:12;100497.34;;;20.77;46.54
48872;BME280;36154;51.674;7.824;2023-04-25T09:25:38;100496.56;;;20.75;46.43
48872;BME280;36154;51.674;7.824;2023-04-25T09:28:08;100506.88;;;20.76;46.63
48872;BME280;36154;51.674;7.824;2023-04-25T09:30:34;100506.88;;;20.76;46.69
48872;BME280;36154;51.674;7.824;2023-04-25T09:33:08;100510.31;;;20.77;46.85
48872;BME280;36154;51.674;7.824;2023-04-25T09:35:42;100508.63;;;20.76;46.83
48872;BME280;36154;51.674;7.824;2023-04-25T09:38:12;100528.44;;;20.77;47.09
48872;BME280;36154;51.674;7.824;2023-04-25T09:40:46;100513.81;;;20.76;47.15
48872;BME280;36154;51.674;7.824;2023-04-25T09:43:22;100524.16;;;20.76;47.21
48872;BME280;36154;51.674;7.824;2023-04-25T09:45:48;100524.16;;;20.76;47.21
48872;BME280;36154;51.674;7.824;2023-04-25T09:48:21;100524.16;;;20.76;47.26
48872;BME280;36154;51.674;7.824;2023-04-25T09:51:12;100528.50;;;20.75;47.25
48872;BME280;36154;51.674;7.824;2023-04-25T09:53:40;100528.50;;;20.75;47.22
48872;BME280;36154;51.674;7.824;2023-04-25T09:56:10;100531.03;;;20.77;47.27
48872;BME280;36154;51.674;7.824;2023-04-25T09:58:37;100525.91;;;20.75;47.49
48872;BME280;36154;51.674;7.824;2023-04-25T10:01:08;100525.84;;;20.77;47.73
48872;BME280;36154;51.674;7.824;2023-04-25T10:03:35;100527.53;;;20.78;47.61
48872;BME280;36154;51.674;7.824;2023-04-25T10:06:03;100531.84;;;20.79;47.65
48872;BME280;36154;51.674;7.824;2023-04-25T10:08:36;100527.53;;;20.78;47.73
48872;BME280;36154;51.674;7.824;2023-04-25T10:11:06;100518.03;;;20.78;47.71
48872;BME280;36154;51.674;7.824;2023-04-25T10:13:33;100531.78;;;20.80;47.76
48872;BME280;36154;51.674;7.824;2023-04-25T10:19:02;100537.81;;;20.81;47.69
48872;BME280;36154;51.674;7.824;2023-04-25T10:21:28;100527.47;;;20.81;47.69
48872;BME280;36154;51.674;7.824;2023-04-25T10:23:56;100533.53;;;20.80;47.68
48872;BME280;36154;51.674;7.824;2023-04-25T10:26:22;100545.59;;;20.81;47.60
48872;BME280;36154;51.674;7.824;2023-04-25T10:28:58;100539.50;;;20.82;47.57
48872;BME280;36154;51.674;7.824;2023-04-25T10:31:24;100549.06;;;20.80;47.42
48872;BME280;36154;51.674;7.824;2023-04-25T10:33:49;100546.47;;;20.80;47.48
48872;BME280;36154;51.674;7.824;2023-04-25T10:36:19;100552.50;;;20.80;47.19
48872;BME280;36154;51.674;7.824;2023-04-25T10:38:48;100543.91;;;20.78;47.41
48872;BME280;36154;51.674;7.824;2023-04-25T10:41:14;100555.16;;;20.79;47.45
48872;BME280;36154;51.674;7.824;2023-04-25T10:43:43;100558.53;;;20.81;47.44
48872;BME280;36154;51.674;7.824;2023-04-25T10:46:22;100548.25;;;20.78;47.60
48872;BME280;36154;51.674;7.824;2023-04-25T10:51:32;100549.97;;;20.79;47.60
48872;BME280;36154;51.674;7.824;2023-04-25T10:54:05;100554.28;;;20.78;47.50
48872;BME280;36154;51.674;7.824;2023-04-25T10:56:35;100562.09;;;20.77;47.53
48872;BME280;36154;51.674;7.824;2023-04-25T11:01:56;100569.84;;;20.77;47.58
48872;BME280;36154;51.674;7.824;2023-04-25T11:04:24;100562.16;;;20.75;47.56
48872;BME280;36154;51.674;7.824;2023-04-25T11:09:27;100570.78;;;20.76;48.14
48872;BME280;36154;51.674;7.824;2023-04-25T11:11:57;100569.06;;;20.75;47.47
48872;BME280;36154;51.674;7.824;2023-04-25T11:14:23;100575.94;;;20.76;47.48
48872;BME280;36154;51.674;7.824;2023-04-25T11:16:58;100570.78;;;20.76;47.54
48872;BME280;36154;51.674;7.824;2023-04-25T11:19:26;100571.66;;;20.75;47.41
48872;BME280;36154;51.674;7.824;2023-04-25T11:21:59;100567.34;;;20.75;47.59
48872;BME280;36154;51.674;7.824;2023-04-25T11:24:28;100562.09;;;20.77;47.43
48872;BME280;36154;51.674;7.824;2023-04-25T11:26:54;100569.84;;;20.77;47.44
48872;BME280;36154;51.674;7.824;2023-04-25T11:29:22;100567.28;;;20.77;47.46
48872;BME280;36154;51.674;7.824;2023-04-25T11:31:48;100568.13;;;20.77;47.59
48872;BME280;36154;51.674;7.824;2023-04-25T11:34:17;100573.28;;;20.79;47.60
48872;BME280;36154;51.674;7.824;2023-04-25T11:36:44;100566.38;;;20.78;47.67
48872;BME280;36154;51.674;7.824;2023-04-25T11:39:10;100576.69;;;20.79;47.98
48872;BME280;36154;51.674;7.824;2023-04-25T11:41:37;100568.88;;;20.81;47.69
48872;BME280;36154;51.674;7.824;2023-04-25T11:44:03;100572.28;;;20.83;47.63
48872;BME280;36154;51.674;7.824;2023-04-25T11:46:28;100574.03;;;20.82;47.49
48872;BME280;36154;51.674;7.824;2023-04-25T11:48:55;100572.28;;;20.83;47.54
48872;BME280;36154;51.674;7.824;2023-04-25T11:51:22;100573.09;;;20.83;47.50
48872;BME280;36154;51.674;7.824;2023-04-25T11:53:47;100582.53;;;20.86;47.39
48872;BME280;36154;51.674;7.824;2023-04-25T11:56:12;100572.19;;;20.86;47.51
48872;BME280;36154;51.674;7.824;2023-04-25T11:59:01;100573.94;;;20.85;47.52
48872;BME280;36154;51.674;7.824;2023-04-25T12:01:31;100577.34;;;20.86;47.42
48872;BME280;36154;51.674;7.824;2023-04-25T12:03:57;100582.53;;;20.86;47.24
48872;BME280;36154;51.674;7.824;2023-04-25T12:06:29;100568.72;;;20.87;47.46
48872;BME280;36154;51.674;7.824;2023-04-25T12:09:04;100573.88;;;20.87;47.45
48872;BME280;36154;51.674;7.824;2023-04-25T12:11:32;100575.56;;;20.88;47.37
48872;BME280;36154;51.674;7.824;2023-04-25T12:14:06;100567.88;;;20.85;47.38
48872;BME280;36154;51.674;7.824;2023-04-25T12:16:45;100574.63;;;20.91;47.27
48872;BME280;36154;51.674;7.824;2023-04-25T12:19:19;100585.81;;;20.91;46.95
48872;BME280;36154;51.674;7.824;2023-04-25T12:21:45;100586.66;;;20.92;47.20
48872;BME280;36154;51.674;7.824;2023-04-25T12:24:33;100584.06;;;20.92;47.25
48872;BME280;36154;51.674;7.824;2023-04-25T12:27:01;100590.13;;;20.92;47.26
48872;BME280;36154;51.674;7.824;2023-04-25T12:29:28;100587.53;;;20.92;47.24
48872;BME280;36154;51.674;7.824;2023-04-25T12:31:55;100596.19;;;20.91;47.20
48872;BME280;36154;51.674;7.824;2023-04-25T12:34:22;100588.41;;;20.91;47.29
48872;BME280;36154;51.674;7.824;2023-04-25T12:36:48;100611.72;;;20.91;47.40
48872;BME280;36154;51.674;7.824;2023-04-25T12:39:23;100613.44;;;20.92;47.19
48872;BME280;36154;51.674;7.824;2023-04-25T12:41:51;100616.91;;;20.91;47.06
48872;BME280;36154;51.674;7.824;2023-04-25T12:44:20;100620.38;;;20.90;47.10
48872;BME280;36154;51.674;7.824;2023-04-25T12:46:45;100629.03;;;20.91;47.18
48872;BME280;36154;51.674;7.824;2023-04-25T12:49:10;100633.31;;;20.90;47.21
48872;BME280;36154;51.674;7.824;2023-04-25T12:51:36;100642.00;;;20.89;47.17
48872;BME280;36154;51.674;7.824;2023-04-25T12:54:03;100635.06;;;20.90;47.24
48872;BME280;36154;51.674;7.824;2023-04-25T12:56:30;100639.41;;;20.89;47.16
48872;BME280;36154;51.674;7.824;2023-04-25T12:58:56;100636.03;;;20.87;47.15